Программирование, программы

Название Размер Сиды, личи Добавлен
Учебный материал. CD Довбуш Г.Ф. 315.13 МБ 35 2 09.02.2016 Скачать
cd-dovbush 315.13 МБ 78 57 09.02.2016 Скачать
Borland Delphi 7 136.77 МБ 52 5 09.02.2016 Скачать
Программирование боевого софта под Linux (И. Скляров) [2007, Программирование, PDF, Отсканированные страницы] 79.36 МБ 10 56 09.02.2016 Скачать
Borland C++ Builder 6.0 [2006, Программирование] 278.20 МБ 58 53 09.02.2016 Скачать
Delphi 2009 & C++ Builder 2009 Architect [2008, Программирование] 884.79 МБ 84 49 09.02.2016 Скачать
Zend Studio 8.0 Beta Linux 334.64 МБ 17 72 08.02.2016 Скачать
Visual Studio 2010 Express 1.71 ГБ 30 74 08.02.2016 Скачать
WDK для Windows 7 (7600) 610.21 МБ 16 20 08.02.2016 Скачать
Denwer(portable) & Dreamweaver(portable) 358.24 МБ 25 29 08.02.2016 Скачать
ClickTeam Install Creator Pro v2.0 build 36 + RUS 3.33 МБ 24 3 08.02.2016 Скачать
VB.Net to C#Converter 14.60 МБ 49 30 08.02.2016 Скачать
Artisteer v2.3.0.21098 Final 61.00 МБ 78 37 08.02.2016 Скачать
Конструктор Сайтов E-PUBLISH 14.96 МБ 25 54 08.02.2016 Скачать
Конвертер PDF to Word (Doc) 3.82 МБ 56 82 08.02.2016 Скачать
ShopperPress – магазин на WordPress 13.22 МБ 39 59 08.02.2016 Скачать
Автоматическая продажа цифровых товаров с вашего сайта через PayPal. 2.25 МБ 22 21 08.02.2016 Скачать
Основы C++. Компьютерная школа Михаила Майорова (Видеоуроки) 2.36 ГБ 56 61 08.02.2016 Скачать
shopcms 3.1.1 + кряк 2.52 МБ 22 86 08.02.2016 Скачать
Шаблоны TM 23000-26000 (выборка) 8.12 ГБ 86 80 08.02.2016 Скачать
MS Visual Basic 6.0 Russian Professional Edition 205.48 МБ 49 59 08.02.2016 Скачать
Mindaugas Pocius - Microsoft Dynamics AX 2009 Development Cookbook [2009, PDF, ENG] 4.84 МБ 22 59 08.02.2016 Скачать
Sami Salkosuo - DWR Java AJAX Applications [2008, PDF, ENG] 6.63 МБ 14 42 08.02.2016 Скачать
IBM DB2 9.1 FixPack 2 Express-C 339.45 МБ 12 31 08.02.2016 Скачать
WYSIWYG Web Builder v6.5.2 4.11 МБ 78 51 08.02.2016 Скачать
PHP Expert Editor 4.3.rar 4.80 МБ 23 8 08.02.2016 Скачать
Jennifer Niederst Robbins - HTML & XHTML Pocket Reference, Fourth Edition [2009, PDF, ENG] 2.36 МБ 38 24 08.02.2016 Скачать
TMS Component Pack v5.4.2.0 (C++Builder, Delphi) Full Source (Install) 7.89 МБ 56 32 08.02.2016 Скачать
IDA Pro Advanced 5.5 with Hex-Rays 1.1 FULL 87.55 МБ 63 79 08.02.2016 Скачать
Play With Pictures 11.46 МБ 21 74 08.02.2016 Скачать
Rainer Eschen - ICEfaces 1.8: Next Generation Enterprise Web Development [2009, PDF, ENG] 6.86 МБ 7 59 08.02.2016 Скачать
Universal Data Access Components (UniDAC) pro AutoSetup (3.00.0.5 01-Dec-09) 32.22 МБ 84 10 08.02.2016 Скачать
Microsoft Visual Basic 6.0 Professional + Service Pack 6 + Cumulative Update VB6 286.39 МБ 80 52 08.02.2016 Скачать
IntelliJ IDEA 9.0 Ultimate Edition 135.95 МБ 23 54 08.02.2016 Скачать
Leadwerks Engine SDK v2.3 1.19 ГБ 53 87 08.02.2016 Скачать
Adobe Flash CS4 Professional 1.12 ГБ 78 48 08.02.2016 Скачать
Adobe Creative Suite 3 Web Premium 3.59 ГБ 45 77 08.02.2016 Скачать
Restorator 2009 9.79 МБ 16 65 08.02.2016 Скачать
IntelliJ IDEA 8.1.4 120.79 МБ 86 30 08.02.2016 Скачать
BrainFuck Develop и вспомогательные элементы - набор программиста-эзотерика. (сборка) 550.41 КБ 31 81 08.02.2016 Скачать
Embarcadero (CodeGear) RAD Studio & Delphi Prism & Partner ISO 2.38 ГБ 4 51 08.02.2016 Скачать
ru visual studio 2008 professional edition dvd x86 x15-25526 3.50 ГБ 75 55 08.02.2016 Скачать
Adobe Dreamweaver CS3 Final rus 301.45 МБ 3 74 08.02.2016 Скачать
Spy Emergency 2009 46.28 МБ 67 80 08.02.2016 Скачать
emu8086 2.90 МБ 7 88 08.02.2016 Скачать
Windows Embedded CE 6.0 R3 Platform Builder 6.47 ГБ 84 35 08.02.2016 Скачать
А.Б. Григорьев - О чем не пишут в книгах по Delphi + CD [2008, PDF] 6.95 МБ 86 23 08.02.2016 Скачать
Artisteer4 66 байт 75 82 08.02.2016 Скачать
EnterBrain RPG Maker VX Ace 1 x86 [2011.11, RUS] 221.63 МБ 44 62 08.02.2016 Скачать
Joomla Builder 2.5.3 (2.5.4) - полная версия 2.5.3 (2.5.4) 65.90 МБ 87 19 08.02.2016 Скачать
Beginner JavaScript Tutorial [2011, ENG] 306.41 МБ 7 62 08.02.2016 Скачать
Zend Studio 9.0.1 235.50 МБ 7 19 08.02.2016 Скачать
Скрипт торрент трекера TemplateShares FULL! (!не TorrentPier!) 7.83 МБ 79 6 08.02.2016 Скачать
Сборник шаблонов и расширении для joomla от студии OmegaTheme [Сборник шаблонов и расширении для joomla от студии OmegaTheme] 672.29 МБ 26 84 08.02.2016 Скачать
Borland C++ 3.1 for Windows, DOS 19.83 МБ 2 59 08.02.2016 Скачать
WebAsyst Shop-Script v3.06 null 16.98 МБ 11 43 08.02.2016 Скачать